PWSweather.com
Personal Weather Stations
Station Observations
BANEKERE1
AntwerpenBE

AntwerpenBE

Lat: 51.2809101, Lon: 4.4202713

Elevation: 40

Station Type:

http://www.akker.be

Latest ConditionsUpdated 6:00:02 PM GMT+01:01 Saturday, Apr 19, 2014
Currently Today's Max Today's Min Today's Average
Temperature 63.3°F17.4°C 65.6°F18.7°C 42.0°F5.6°C 51.8°F11.0°C
Dew Point 43.2°F6.2°C 44.1°F6.7°C 36.7°F2.6°C 41.0°F5.0°C
Winds 4.8 mph ENE7.7 kmh ENE 6.9 mph NE11.1 kmh NE - 1.7 mph 2.7 kmh
Wind Gusts 5.5 mph8.9 kmh 11.0 mph17.7 kmh - -
Humidity 48% 89% 44% 69%
Pressure 29.94 in1013.9 mb 30.08 in1018.6 mb 29.94 in1013.9 mb -
Hour Temp Dew Point Humidity Winds Wind Gusts Pressure Precip Precip Rate Daily Precip Total
06:00 PM 63.3°F17.4°C 43.2°F6.2°C 48% 4.8 mph ENE7.7 kmh ENE 5.5 mph8.9 kmh 29.94 in1013.9 mb 0.00 in0.0 mm 0.00 in/hr0.0 mm/hr 0.00 in0.0 mm
05:50 PM 63.7°F17.6°C 43.1°F6.2°C 47% 5.3 mph NNE8.5 kmh NNE 11.0 mph17.7 kmh 29.95 in1014.2 mb 0.00 in0.0 mm 0.00 in/hr0.0 mm/hr 0.00 in0.0 mm
05:40 PM 64.0°F17.8°C 43.4°F6.3°C 47% 3.9 mph E6.3 kmh E 8.8 mph14.2 kmh 29.95 in1014.2 mb 0.00 in0.0 mm 0.00 in/hr0.0 mm/hr 0.00 in0.0 mm
05:30 PM 64.1°F17.8°C 42.9°F6.1°C 46% 4.3 mph NE6.9 kmh NE 3.3 mph5.3 kmh 29.95 in1014.2 mb 0.00 in0.0 mm 0.00 in/hr0.0 mm/hr 0.00 in0.0 mm
05:20 PM 64.3°F17.9°C 43.6°F6.4°C 47% 2.1 mph NE3.4 kmh NE 4.4 mph7.1 kmh 29.95 in1014.2 mb 0.00 in0.0 mm 0.00 in/hr0.0 mm/hr 0.00 in0.0 mm
05:10 PM 64.5°F18.1°C 43.3°F6.3°C 46% 4.3 mph NNE6.9 kmh NNE 8.8 mph14.2 kmh 29.96 in1014.6 mb 0.00 in0.0 mm 0.00 in/hr0.0 mm/hr 0.00 in0.0 mm
05:00 PM 64.5°F18.1°C 43.3°F6.3°C 46% 4.0 mph N6.4 kmh N 5.5 mph8.9 kmh 29.96 in1014.6 mb 0.00 in0.0 mm 0.00 in/hr0.0 mm/hr 0.00 in0.0 mm
04:50 PM 63.9°F17.7°C 43.2°F6.2°C 47% 2.4 mph NE3.9 kmh NE 5.5 mph8.9 kmh 29.96 in1014.6 mb 0.00 in0.0 mm 0.00 in/hr0.0 mm/hr 0.00 in0.0 mm
04:40 PM 63.8°F17.7°C 43.2°F6.2°C 47% 6.4 mph NE10.3 kmh NE 9.9 mph15.9 kmh 29.97 in1014.9 mb 0.00 in0.0 mm 0.00 in/hr0.0 mm/hr 0.00 in0.0 mm
04:30 PM 64.3°F17.9°C 43.1°F6.2°C 46% 6.9 mph NE11.1 kmh NE 9.9 mph15.9 kmh 29.97 in1014.9 mb 0.00 in0.0 mm 0.00 in/hr0.0 mm/hr 0.00 in0.0 mm
04:20 PM 64.1°F17.8°C 42.9°F6.1°C 46% 2.3 mph ENE3.7 kmh ENE 4.4 mph7.1 kmh 29.97 in1014.9 mb 0.00 in0.0 mm 0.00 in/hr0.0 mm/hr 0.00 in0.0 mm
04:10 PM 64.4°F18.0°C 42.6°F5.9°C 45% 5.3 mph NNE8.5 kmh NNE 8.8 mph14.2 kmh 29.97 in1014.9 mb 0.00 in0.0 mm 0.00 in/hr0.0 mm/hr 0.00 in0.0 mm
04:00 PM 65.0°F18.3°C 43.1°F6.2°C 45% 4.5 mph NE7.2 kmh NE 5.5 mph8.9 kmh 29.98 in1015.2 mb 0.00 in0.0 mm 0.00 in/hr0.0 mm/hr 0.00 in0.0 mm
03:50 PM 65.6°F18.7°C 43.1°F6.2°C 44% 1.2 mph N1.9 kmh N 4.4 mph7.1 kmh 29.98 in1015.2 mb 0.00 in0.0 mm 0.00 in/hr0.0 mm/hr 0.00 in0.0 mm
03:40 PM 65.5°F18.6°C 44.1°F6.7°C 46% 2.3 mph NE3.7 kmh NE 4.4 mph7.1 kmh 29.99 in1015.6 mb 0.00 in0.0 mm 0.00 in/hr0.0 mm/hr 0.00 in0.0 mm
03:30 PM 64.8°F18.2°C 42.9°F6.1°C 45% 1.8 mph NE2.9 kmh NE 4.4 mph7.1 kmh 29.99 in1015.6 mb 0.00 in0.0 mm 0.00 in/hr0.0 mm/hr 0.00 in0.0 mm
03:20 PM 64.7°F18.2°C 43.4°F6.3°C 46% 3.3 mph ESE5.3 kmh ESE 8.8 mph14.2 kmh 30.00 in1015.9 mb 0.00 in0.0 mm 0.00 in/hr0.0 mm/hr 0.00 in0.0 mm
03:10 PM 64.8°F18.2°C 42.9°F6.1°C 45% 5.0 mph NNE8.0 kmh NNE 5.5 mph8.9 kmh 30.00 in1015.9 mb 0.00 in0.0 mm 0.00 in/hr0.0 mm/hr 0.00 in0.0 mm
03:00 PM 64.4°F18.0°C 43.2°F6.2°C 46% 3.0 mph NE4.8 kmh NE 8.8 mph14.2 kmh 30.00 in1015.9 mb 0.00 in0.0 mm 0.00 in/hr0.0 mm/hr 0.00 in0.0 mm
02:50 PM 64.1°F17.8°C 43.4°F6.3°C 47% 3.7 mph ESE6.0 kmh ESE 6.6 mph10.6 kmh 30.01 in1016.3 mb 0.00 in0.0 mm 0.00 in/hr0.0 mm/hr 0.00 in0.0 mm
02:40 PM 63.7°F17.6°C 43.1°F6.2°C 47% 1.5 mph N2.4 kmh N 4.4 mph7.1 kmh 30.01 in1016.3 mb 0.00 in0.0 mm 0.00 in/hr0.0 mm/hr 0.00 in0.0 mm
02:30 PM 63.4°F17.4°C 43.4°F6.3°C 48% 4.5 mph N7.2 kmh N 6.6 mph10.6 kmh 30.02 in1016.6 mb 0.00 in0.0 mm 0.00 in/hr0.0 mm/hr 0.00 in0.0 mm
02:20 PM 63.5°F17.5°C 43.4°F6.3°C 48% 3.2 mph NE5.1 kmh NE 5.5 mph8.9 kmh 30.02 in1016.6 mb 0.00 in0.0 mm 0.00 in/hr0.0 mm/hr 0.00 in0.0 mm
02:10 PM 63.5°F17.5°C 42.9°F6.1°C 47% 4.3 mph NNE6.9 kmh NNE 7.7 mph12.4 kmh 30.03 in1016.9 mb 0.00 in0.0 mm 0.00 in/hr0.0 mm/hr 0.00 in0.0 mm
02:00 PM 62.7°F17.1°C 43.3°F6.3°C 49% 3.0 mph NE4.8 kmh NE 5.5 mph8.9 kmh 30.03 in1016.9 mb 0.00 in0.0 mm 0.00 in/hr0.0 mm/hr 0.00 in0.0 mm
01:50 PM 61.8°F16.6°C 42.4°F5.8°C 49% 2.8 mph NE4.5 kmh NE 5.5 mph8.9 kmh 30.04 in1017.3 mb 0.00 in0.0 mm 0.00 in/hr0.0 mm/hr 0.00 in0.0 mm
01:40 PM 61.1°F16.2°C 42.3°F5.7°C 50% 2.9 mph ENE4.7 kmh ENE 3.3 mph5.3 kmh 30.04 in1017.3 mb 0.00 in0.0 mm 0.00 in/hr0.0 mm/hr 0.00 in0.0 mm
01:30 PM 60.5°F15.8°C 43.3°F6.3°C 53% 2.0 mph NE3.2 kmh NE 2.2 mph3.5 kmh 30.03 in1016.9 mb 0.00 in0.0 mm 0.00 in/hr0.0 mm/hr 0.00 in0.0 mm
01:20 PM 60.9°F16.1°C 43.1°F6.2°C 52% 1.9 mph NNE3.1 kmh NNE 4.4 mph7.1 kmh 30.03 in1016.9 mb 0.00 in0.0 mm 0.00 in/hr0.0 mm/hr 0.00 in0.0 mm
01:10 PM 59.9°F15.5°C 42.2°F5.7°C 52% 3.2 mph NE5.1 kmh NE 4.4 mph7.1 kmh 30.03 in1016.9 mb 0.00 in0.0 mm 0.00 in/hr0.0 mm/hr 0.00 in0.0 mm
01:00 PM 60.3°F15.7°C 43.1°F6.2°C 53% 2.4 mph NE3.9 kmh NE 7.7 mph12.4 kmh 30.04 in1017.3 mb 0.00 in0.0 mm 0.00 in/hr0.0 mm/hr 0.00 in0.0 mm
12:50 PM 60.5°F15.8°C 41.8°F5.4°C 50% 2.9 mph E4.7 kmh E 3.3 mph5.3 kmh 30.05 in1017.6 mb 0.00 in0.0 mm 0.00 in/hr0.0 mm/hr 0.00 in0.0 mm
12:40 PM 60.0°F15.6°C 42.3°F5.7°C 52% 2.8 mph SE4.5 kmh SE 5.5 mph8.9 kmh 30.05 in1017.6 mb 0.00 in0.0 mm 0.00 in/hr0.0 mm/hr 0.00 in0.0 mm
12:30 PM 59.0°F15.0°C 42.9°F6.1°C 55% 3.4 mph ESE5.5 kmh ESE 9.9 mph15.9 kmh 30.06 in1017.9 mb 0.00 in0.0 mm 0.00 in/hr0.0 mm/hr 0.00 in0.0 mm
12:20 PM 58.2°F14.6°C 42.6°F5.9°C 56% 3.5 mph NE5.6 kmh NE 4.4 mph7.1 kmh 30.06 in1017.9 mb 0.00 in0.0 mm 0.00 in/hr0.0 mm/hr 0.00 in0.0 mm
12:10 PM 58.2°F14.6°C 42.6°F5.9°C 56% 0.9 mph E1.4 kmh E 3.3 mph5.3 kmh 30.07 in1018.3 mb 0.00 in0.0 mm 0.00 in/hr0.0 mm/hr 0.00 in0.0 mm
12:00 PM 58.2°F14.6°C 42.6°F5.9°C 56% 2.6 mph NNE4.2 kmh NNE 7.7 mph12.4 kmh 30.06 in1017.9 mb 0.00 in0.0 mm 0.00 in/hr0.0 mm/hr 0.00 in0.0 mm
11:50 AM 57.3°F14.1°C 41.7°F5.4°C 56% 1.7 mph SE2.7 kmh SE 3.3 mph5.3 kmh 30.06 in1017.9 mb 0.00 in0.0 mm 0.00 in/hr0.0 mm/hr 0.00 in0.0 mm
11:40 AM 56.1°F13.4°C 41.5°F5.3°C 58% 2.4 mph E3.9 kmh E 3.3 mph5.3 kmh 30.07 in1018.3 mb 0.00 in0.0 mm 0.00 in/hr0.0 mm/hr 0.00 in0.0 mm
11:30 AM 56.9°F13.8°C 40.9°F4.9°C 55% 3.6 mph ESE5.8 kmh ESE 6.6 mph10.6 kmh 30.07 in1018.3 mb 0.00 in0.0 mm 0.00 in/hr0.0 mm/hr 0.00 in0.0 mm
11:20 AM 57.7°F14.3°C 41.6°F5.3°C 55% 3.1 mph E5.0 kmh E 5.5 mph8.9 kmh 30.07 in1018.3 mb 0.00 in0.0 mm 0.00 in/hr0.0 mm/hr 0.00 in0.0 mm
11:10 AM 57.5°F14.2°C 42.3°F5.7°C 57% 3.8 mph E6.1 kmh E 7.7 mph12.4 kmh 30.07 in1018.3 mb 0.00 in0.0 mm 0.00 in/hr0.0 mm/hr 0.00 in0.0 mm
11:00 AM 56.9°F13.8°C 42.3°F5.7°C 58% 3.9 mph ESE6.3 kmh ESE 6.6 mph10.6 kmh 30.07 in1018.3 mb 0.00 in0.0 mm 0.00 in/hr0.0 mm/hr 0.00 in0.0 mm
10:50 AM 55.7°F13.2°C 42.5°F5.8°C 61% 2.0 mph NE3.2 kmh NE 6.6 mph10.6 kmh 30.08 in1018.6 mb 0.00 in0.0 mm 0.00 in/hr0.0 mm/hr 0.00 in0.0 mm
10:40 AM 54.7°F12.6°C 42.7°F5.9°C 64% 1.7 mph NNE2.7 kmh NNE 2.2 mph3.5 kmh 30.07 in1018.3 mb 0.00 in0.0 mm 0.00 in/hr0.0 mm/hr 0.00 in0.0 mm
10:30 AM 53.7°F12.1°C 43.0°F6.1°C 67% 3.0 mph NNE4.8 kmh NNE 9.9 mph15.9 kmh 30.07 in1018.3 mb 0.00 in0.0 mm 0.00 in/hr0.0 mm/hr 0.00 in0.0 mm
10:20 AM 52.5°F11.4°C 42.6°F5.9°C 69% 2.7 mph ENE4.3 kmh ENE 3.3 mph5.3 kmh 30.07 in1018.3 mb 0.00 in0.0 mm 0.00 in/hr0.0 mm/hr 0.00 in0.0 mm
10:10 AM 51.3°F10.7°C 42.6°F5.9°C 72% 0.7 mph ENE1.1 kmh ENE 2.2 mph3.5 kmh 30.07 in1018.3 mb 0.00 in0.0 mm 0.00 in/hr0.0 mm/hr 0.00 in0.0 mm
10:00 AM 50.6°F10.3°C 42.3°F5.7°C 73% 0.8 mph NE1.3 kmh NE 3.3 mph5.3 kmh 30.07 in1018.3 mb 0.00 in0.0 mm 0.00 in/hr0.0 mm/hr 0.00 in0.0 mm
09:50 AM 50.4°F10.2°C 42.4°F5.8°C 74% 1.8 mph NE2.9 kmh NE 4.4 mph7.1 kmh 30.08 in1018.6 mb 0.00 in0.0 mm 0.00 in/hr0.0 mm/hr 0.00 in0.0 mm
09:40 AM 49.6°F9.8°C 42.7°F5.9°C 77% 1.3 mph ENE2.1 kmh ENE 7.7 mph12.4 kmh 30.08 in1018.6 mb 0.00 in0.0 mm 0.00 in/hr0.0 mm/hr 0.00 in0.0 mm
09:30 AM 48.6°F9.2°C 42.0°F5.6°C 78% 0.6 mph NE1.0 kmh NE 3.3 mph5.3 kmh 30.08 in1018.6 mb 0.00 in0.0 mm 0.00 in/hr0.0 mm/hr 0.00 in0.0 mm
09:20 AM 48.3°F9.1°C 42.1°F5.6°C 79% 2.1 mph E3.4 kmh E 3.3 mph5.3 kmh 30.08 in1018.6 mb 0.00 in0.0 mm 0.00 in/hr0.0 mm/hr 0.00 in0.0 mm
09:10 AM 48.2°F9.0°C 42.6°F5.9°C 81% 1.5 mph NE2.4 kmh NE 3.3 mph5.3 kmh 30.08 in1018.6 mb 0.00 in0.0 mm 0.00 in/hr0.0 mm/hr 0.00 in0.0 mm
09:00 AM 47.9°F8.8°C 42.7°F5.9°C 82% 1.3 mph E2.1 kmh E 1.1 mph1.8 kmh 30.08 in1018.6 mb 0.00 in0.0 mm 0.00 in/hr0.0 mm/hr 0.00 in0.0 mm
08:50 AM 47.6°F8.7°C 42.7°F5.9°C 83% 1.0 mph ESE1.6 kmh ESE 2.2 mph3.5 kmh 30.07 in1018.3 mb 0.00 in0.0 mm 0.00 in/hr0.0 mm/hr 0.00 in0.0 mm
08:40 AM 47.3°F8.5°C 42.7°F5.9°C 84% 1.7 mph NNE2.7 kmh NNE 6.6 mph10.6 kmh 30.07 in1018.3 mb 0.00 in0.0 mm 0.00 in/hr0.0 mm/hr 0.00 in0.0 mm
08:30 AM 47.0°F8.3°C 42.7°F5.9°C 85% 1.5 mph ENE2.4 kmh ENE 2.2 mph3.5 kmh 30.07 in1018.3 mb 0.00 in0.0 mm 0.00 in/hr0.0 mm/hr 0.00 in0.0 mm
08:20 AM 46.7°F8.2°C 43.1°F6.2°C 87% 0.7 mph E1.1 kmh E 2.2 mph3.5 kmh 30.07 in1018.3 mb 0.00 in0.0 mm 0.00 in/hr0.0 mm/hr 0.00 in0.0 mm
08:10 AM 46.0°F7.8°C 42.6°F5.9°C 88% 1.0 mph SE1.6 kmh SE 1.1 mph1.8 kmh 30.07 in1018.3 mb 0.00 in0.0 mm 0.00 in/hr0.0 mm/hr 0.00 in0.0 mm
08:00 AM 45.6°F7.6°C 42.2°F5.7°C 88% 1.0 mph E1.6 kmh E 1.1 mph1.8 kmh 30.07 in1018.3 mb 0.00 in0.0 mm 0.00 in/hr0.0 mm/hr 0.00 in0.0 mm
07:50 AM 45.2°F7.3°C 41.9°F5.5°C 88% 1.0 mph ENE1.6 kmh ENE 1.1 mph1.8 kmh 30.07 in1018.3 mb 0.00 in0.0 mm 0.00 in/hr0.0 mm/hr 0.00 in0.0 mm
07:40 AM 44.9°F7.2°C 41.6°F5.3°C 88% 1.6 mph ENE2.6 kmh ENE 2.2 mph3.5 kmh 30.07 in1018.3 mb 0.00 in0.0 mm 0.00 in/hr0.0 mm/hr 0.00 in0.0 mm
07:30 AM 44.8°F7.1°C 41.8°F5.4°C 89% 0.6 mph ENE1.0 kmh ENE 2.2 mph3.5 kmh 30.06 in1017.9 mb 0.00 in0.0 mm 0.00 in/hr0.0 mm/hr 0.00 in0.0 mm
07:20 AM 44.5°F6.9°C 41.5°F5.3°C 89% 1.3 mph SE2.1 kmh SE 6.6 mph10.6 kmh 30.06 in1017.9 mb 0.00 in0.0 mm 0.00 in/hr0.0 mm/hr 0.00 in0.0 mm
07:10 AM 44.0°F6.7°C 41.0°F5.0°C 89% 1.5 mph N2.4 kmh N 2.2 mph3.5 kmh 30.06 in1017.9 mb 0.00 in0.0 mm 0.00 in/hr0.0 mm/hr 0.00 in0.0 mm
07:00 AM 43.9°F6.6°C 40.9°F4.9°C 89% 0.2 mph N0.3 kmh N -- 30.06 in1017.9 mb 0.00 in0.0 mm 0.00 in/hr0.0 mm/hr 0.00 in0.0 mm
06:50 AM 43.7°F6.5°C 40.7°F4.8°C 89% 0.3 mph N0.5 kmh N 2.2 mph3.5 kmh 30.06 in1017.9 mb 0.00 in0.0 mm 0.00 in/hr0.0 mm/hr 0.00 in0.0 mm
06:40 AM 43.4°F6.3°C 40.1°F4.5°C 88% 0.1 mph N0.2 kmh N 1.1 mph1.8 kmh 30.06 in1017.9 mb 0.00 in0.0 mm 0.00 in/hr0.0 mm/hr 0.00 in0.0 mm
06:30 AM 43.2°F6.2°C 39.9°F4.4°C 88% 0.1 mph N0.2 kmh N 1.1 mph1.8 kmh 30.06 in1017.9 mb 0.00 in0.0 mm 0.00 in/hr0.0 mm/hr 0.00 in0.0 mm
06:20 AM 43.2°F6.2°C 39.9°F4.4°C 88% Calm Calm -- 30.06 in1017.9 mb 0.00 in0.0 mm 0.00 in/hr0.0 mm/hr 0.00 in0.0 mm
06:10 AM 43.2°F6.2°C 39.9°F4.4°C 88% 0.9 mph N1.4 kmh N 1.1 mph1.8 kmh 30.05 in1017.6 mb 0.00 in0.0 mm 0.00 in/hr0.0 mm/hr 0.00 in0.0 mm
06:00 AM 42.9°F6.1°C 39.3°F4.1°C 87% 1.1 mph N1.8 kmh N 4.4 mph7.1 kmh 30.05 in1017.6 mb 0.00 in0.0 mm 0.00 in/hr0.0 mm/hr 0.00 in0.0 mm
05:50 AM 42.7°F5.9°C 39.1°F3.9°C 87% 0.7 mph N1.1 kmh N 2.2 mph3.5 kmh 30.05 in1017.6 mb 0.00 in0.0 mm 0.00 in/hr0.0 mm/hr 0.00 in0.0 mm
05:40 AM 42.5°F5.8°C 38.9°F3.8°C 87% 0.1 mph N0.2 kmh N 2.2 mph3.5 kmh 30.04 in1017.3 mb 0.00 in0.0 mm 0.00 in/hr0.0 mm/hr 0.00 in0.0 mm
05:30 AM 42.5°F5.8°C 38.6°F3.7°C 86% Calm Calm -- 30.04 in1017.3 mb 0.00 in0.0 mm 0.00 in/hr0.0 mm/hr 0.00 in0.0 mm
05:20 AM 42.6°F5.9°C 38.7°F3.7°C 86% Calm Calm -- 30.04 in1017.3 mb 0.00 in0.0 mm 0.00 in/hr0.0 mm/hr 0.00 in0.0 mm
05:10 AM 42.7°F5.9°C 38.8°F3.8°C 86% 2.0 mph N3.2 kmh N 3.3 mph5.3 kmh 30.04 in1017.3 mb 0.00 in0.0 mm 0.00 in/hr0.0 mm/hr 0.00 in0.0 mm
05:00 AM 42.7°F5.9°C 38.8°F3.8°C 86% 0.8 mph N1.3 kmh N 2.2 mph3.5 kmh 30.04 in1017.3 mb 0.00 in0.0 mm 0.00 in/hr0.0 mm/hr 0.00 in0.0 mm
04:50 AM 42.6°F5.9°C 38.4°F3.6°C 85% 0.9 mph N1.4 kmh N 3.3 mph5.3 kmh 30.04 in1017.3 mb 0.00 in0.0 mm 0.00 in/hr0.0 mm/hr 0.00 in0.0 mm
04:40 AM 42.6°F5.9°C 38.4°F3.6°C 85% 0.2 mph N0.3 kmh N -- 30.04 in1017.3 mb 0.00 in0.0 mm 0.00 in/hr0.0 mm/hr 0.00 in0.0 mm
04:30 AM 42.7°F5.9°C 38.5°F3.6°C 85% Calm Calm -- 30.04 in1017.3 mb 0.00 in0.0 mm 0.00 in/hr0.0 mm/hr 0.00 in0.0 mm
04:20 AM 42.7°F5.9°C 38.2°F3.4°C 84% 0.2 mph N0.3 kmh N 1.1 mph1.8 kmh 30.04 in1017.3 mb 0.00 in0.0 mm 0.00 in/hr0.0 mm/hr 0.00 in0.0 mm
04:10 AM 42.9°F6.1°C 38.4°F3.6°C 84% 0.3 mph N0.5 kmh N -- 30.04 in1017.3 mb 0.00 in0.0 mm 0.00 in/hr0.0 mm/hr 0.00 in0.0 mm
04:00 AM 43.0°F6.1°C 38.5°F3.6°C 84% 0.2 mph N0.3 kmh N 1.1 mph1.8 kmh 30.04 in1017.3 mb 0.00 in0.0 mm 0.00 in/hr0.0 mm/hr 0.00 in0.0 mm
03:50 AM 43.2°F6.2°C 38.7°F3.7°C 84% 0.1 mph N0.2 kmh N 1.1 mph1.8 kmh 30.04 in1017.3 mb 0.00 in0.0 mm 0.00 in/hr0.0 mm/hr 0.00 in0.0 mm
03:40 AM 43.3°F6.3°C 38.8°F3.8°C 84% 0.9 mph N1.4 kmh N 2.2 mph3.5 kmh 30.04 in1017.3 mb 0.00 in0.0 mm 0.00 in/hr0.0 mm/hr 0.00 in0.0 mm
03:30 AM 43.3°F6.3°C 38.8°F3.8°C 84% Calm Calm 1.1 mph1.8 kmh 30.04 in1017.3 mb 0.00 in0.0 mm 0.00 in/hr0.0 mm/hr 0.00 in0.0 mm
03:20 AM 43.2°F6.2°C 38.7°F3.7°C 84% 0.3 mph NNE0.5 kmh NNE 1.1 mph1.8 kmh 30.04 in1017.3 mb 0.00 in0.0 mm 0.00 in/hr0.0 mm/hr 0.00 in0.0 mm
03:10 AM 43.0°F6.1°C 38.5°F3.6°C 84% 0.6 mph NNE1.0 kmh NNE -- 30.05 in1017.6 mb 0.00 in0.0 mm 0.00 in/hr0.0 mm/hr 0.00 in0.0 mm
03:00 AM 42.8°F6.0°C 38.3°F3.5°C 84% 0.7 mph N1.1 kmh N 3.3 mph5.3 kmh 30.05 in1017.6 mb 0.00 in0.0 mm 0.00 in/hr0.0 mm/hr 0.00 in0.0 mm
02:50 AM 42.5°F5.8°C 38.0°F3.3°C 84% Calm Calm 2.2 mph3.5 kmh 30.05 in1017.6 mb 0.00 in0.0 mm 0.00 in/hr0.0 mm/hr 0.00 in0.0 mm
02:40 AM 42.3°F5.7°C 37.5°F3.1°C 83% 0.6 mph N1.0 kmh N 2.2 mph3.5 kmh 30.05 in1017.6 mb 0.00 in0.0 mm 0.00 in/hr0.0 mm/hr 0.00 in0.0 mm
02:30 AM 42.1°F5.6°C 37.3°F2.9°C 83% 0.9 mph NNW1.4 kmh NNW 1.1 mph1.8 kmh 30.06 in1017.9 mb 0.00 in0.0 mm 0.00 in/hr0.0 mm/hr 0.00 in0.0 mm
02:20 AM 42.0°F5.6°C 36.9°F2.7°C 82% Calm Calm -- 30.06 in1017.9 mb 0.00 in0.0 mm 0.00 in/hr0.0 mm/hr 0.00 in0.0 mm
02:10 AM 42.1°F5.6°C 36.7°F2.6°C 81% Calm Calm -- 30.06 in1017.9 mb 0.00 in0.0 mm 0.00 in/hr0.0 mm/hr 0.00 in0.0 mm
02:00 AM 42.3°F5.7°C 36.9°F2.7°C 81% 0.1 mph NNW0.2 kmh NNW 1.1 mph1.8 kmh 30.06 in1017.9 mb 0.00 in0.0 mm 0.00 in/hr0.0 mm/hr 0.00 in0.0 mm
01:50 AM 42.5°F5.8°C 36.8°F2.7°C 80% Calm Calm 1.1 mph1.8 kmh 30.06 in1017.9 mb 0.00 in0.0 mm 0.00 in/hr0.0 mm/hr 0.00 in0.0 mm
01:40 AM 42.8°F6.0°C 37.1°F2.8°C 80% 0.4 mph NNW0.6 kmh NNW 2.2 mph3.5 kmh 30.06 in1017.9 mb 0.00 in0.0 mm 0.00 in/hr0.0 mm/hr 0.00 in0.0 mm
01:30 AM 43.1°F6.2°C 37.0°F2.8°C 79% 0.4 mph NNW0.6 kmh NNW 1.1 mph1.8 kmh 30.07 in1018.3 mb 0.00 in0.0 mm 0.00 in/hr0.0 mm/hr 0.00 in0.0 mm
01:20 AM 43.3°F6.3°C 37.3°F2.9°C 79% Calm Calm 1.1 mph1.8 kmh 30.07 in1018.3 mb 0.00 in0.0 mm 0.00 in/hr0.0 mm/hr 0.00 in0.0 mm
01:10 AM 43.7°F6.5°C 37.2°F2.9°C 78% 0.2 mph N0.3 kmh N 2.2 mph3.5 kmh 30.06 in1017.9 mb 0.00 in0.0 mm 0.00 in/hr0.0 mm/hr 0.00 in0.0 mm
01:00 AM 44.0°F6.7°C 37.3°F2.9°C 77% 0.4 mph N0.6 kmh N 1.1 mph1.8 kmh 30.06 in1017.9 mb 0.00 in0.0 mm 0.00 in/hr0.0 mm/hr 0.00 in0.0 mm
12:50 AM 44.6°F7.0°C 37.5°F3.1°C 76% Calm Calm -- 30.07 in1018.3 mb 0.00 in0.0 mm 0.00 in/hr0.0 mm/hr 0.00 in0.0 mm
12:40 AM 45.0°F7.2°C 37.6°F3.1°C 75% Calm Calm -- 30.07 in1018.3 mb 0.00 in0.0 mm 0.00 in/hr0.0 mm/hr 0.00 in0.0 mm
12:30 AM 45.3°F7.4°C 37.8°F3.2°C 75% Calm Calm -- 30.07 in1018.3 mb 0.00 in0.0 mm 0.00 in/hr0.0 mm/hr 0.00 in0.0 mm
12:20 AM 45.7°F7.6°C 37.9°F3.3°C 74% Calm Calm 1.1 mph1.8 kmh 30.07 in1018.3 mb 0.00 in0.0 mm 0.00 in/hr0.0 mm/hr 0.00 in0.0 mm
12:10 AM 46.1°F7.8°C 38.3°F3.5°C 74% 0.3 mph N0.5 kmh N 1.1 mph1.8 kmh 30.07 in1018.3 mb 0.00 in0.0 mm 0.00 in/hr0.0 mm/hr 0.00 in0.0 mm
12:00 AM 46.4°F8.0°C 38.2°F3.4°C 73% Calm Calm 1.1 mph1.8 kmh 30.07 in1018.3 mb 0.00 in0.0 mm 0.00 in/hr0.0 mm/hr 0.00 in0.0 mm